Time;durP1;ratioP1;P1;durP2;ratioP2;P2;SDS_P1;SDS_P2;PMS_P1;PMS_P2;Temp;Humidity;BMP_temperature;BMP_pressure;BME280_temperature;BME280_humidity;BME280_pressure;Samples;Min_cycle;Max_cycle;Signal;HPM_P1;HPM_P2
2021/01/28 00:01:25;;;;;;;13.63;7.57;;;2.60;99.90;;;;;;4983556;28;20074;-68
2021/01/28 00:03:52;;;;;;;14.57;8.17;;;2.60;99.90;;;;;;4980500;28;20084;-68
2021/01/28 00:06:18;;;;;;;14.70;8.10;;;2.60;99.90;;;;;;4974728;28;20050;-69
2021/01/28 00:08:45;;;;;;;12.03;6.73;;;2.60;99.90;;;;;;4977636;28;20054;-68
2021/01/28 00:11:12;;;;;;;13.53;7.33;;;2.50;99.90;;;;;;4971438;28;20051;-69
2021/01/28 00:13:38;;;;;;;14.20;8.10;;;2.30;99.90;;;;;;4974719;28;20062;-67
2021/01/28 00:16:06;;;;;;;14.07;8.40;;;2.40;99.90;;;;;;4975498;28;20046;-69
2021/01/28 00:18:33;;;;;;;13.37;7.70;;;2.40;99.90;;;;;;4973881;28;20043;-69
2021/01/28 00:21:00;;;;;;;13.13;7.77;;;2.40;99.90;;;;;;4974206;28;20051;-69
2021/01/28 00:23:26;;;;;;;15.20;8.67;;;2.40;99.90;;;;;;4969907;28;20047;-69
2021/01/28 00:25:53;;;;;;;14.40;8.33;;;2.40;99.90;;;;;;4976442;28;20054;-68
2021/01/28 00:28:22;;;;;;;14.77;9.30;;;2.40;99.90;;;;;;4975852;28;20054;-69
2021/01/28 00:30:53;;;;;;;17.23;9.87;;;2.50;99.90;;;;;;4974689;28;20062;-69
2021/01/28 00:33:22;;;;;;;14.57;8.27;;;2.40;99.90;;;;;;4971798;28;20050;-70
2021/01/28 00:35:51;;;;;;;14.40;8.87;;;2.50;99.90;;;;;;4976458;28;20050;-69
2021/01/28 00:38:20;;;;;;;15.50;8.60;;;2.40;99.90;;;;;;4981774;28;20051;-69
2021/01/28 00:40:46;;;;;;;17.80;10.53;;;2.50;99.90;;;;;;4981945;28;20051;-68
2021/01/28 00:43:13;;;;;;;16.07;9.83;;;2.40;99.90;;;;;;4978384;28;20066;-69
2021/01/28 00:45:40;;;;;;;20.90;11.07;;;2.50;99.90;;;;;;4974554;28;20397;-68
2021/01/28 00:48:08;;;;;;;17.87;10.00;;;2.60;99.90;;;;;;4976893;28;20484;-69
2021/01/28 00:50:36;;;;;;;17.67;10.40;;;2.60;99.90;;;;;;4981081;28;20047;-68
2021/01/28 00:53:04;;;;;;;15.33;9.73;;;2.50;99.90;;;;;;4980925;28;20062;-68
2021/01/28 00:55:31;;;;;;;16.87;10.10;;;2.50;99.90;;;;;;4982295;28;20711;-68
2021/01/28 00:57:58;;;;;;;19.80;11.13;;;2.60;99.90;;;;;;4982092;28;20137;-69
2021/01/28 01:00:29;;;;;;;16.83;10.13;;;2.70;99.90;;;;;;4974906;28;20789;-69
2021/01/28 01:02:56;;;;;;;18.60;10.20;;;2.70;99.90;;;;;;4972963;28;20505;-69
2021/01/28 01:05:27;;;;;;;18.73;10.30;;;2.70;99.90;;;;;;4978992;28;20056;-69
2021/01/28 01:07:54;;;;;;;20.83;11.10;;;2.60;99.90;;;;;;4979442;28;20109;-69
2021/01/28 01:10:34;;;;;;;17.80;10.37;;;2.70;99.90;;;;;;4981331;28;20055;-69
2021/01/28 01:13:01;;;;;;;16.63;9.43;;;2.60;99.90;;;;;;4975514;28;20709;-69
2021/01/28 01:15:28;;;;;;;17.43;10.00;;;2.70;99.90;;;;;;4980426;28;20084;-69
2021/01/28 01:17:55;;;;;;;17.80;10.53;;;2.60;99.90;;;;;;4981380;28;20039;-69
2021/01/28 01:20:23;;;;;;;17.80;10.43;;;2.60;99.90;;;;;;4979424;28;20729;-70
2021/01/28 01:22:49;;;;;;;19.50;11.10;;;2.70;99.90;;;;;;4966677;28;20424;-68
2021/01/28 01:25:17;;;;;;;19.57;11.63;;;2.60;99.90;;;;;;4964886;28;20055;-69
2021/01/28 01:27:44;;;;;;;21.23;10.97;;;2.60;99.90;;;;;;4965426;28;20055;-69
2021/01/28 01:30:13;;;;;;;20.03;11.73;;;2.80;99.90;;;;;;4969767;28;20062;-70
2021/01/28 01:32:39;;;;;;;22.87;11.27;;;2.80;99.90;;;;;;4985090;28;20043;-69
2021/01/28 01:35:07;;;;;;;19.77;11.23;;;2.80;99.90;;;;;;4986232;28;20057;-69
2021/01/28 01:37:34;;;;;;;21.07;11.17;;;2.90;99.90;;;;;;4987573;28;20464;-69
2021/01/28 01:40:00;;;;;;;23.17;11.03;;;2.80;99.90;;;;;;4988105;28;20054;-69
2021/01/28 01:42:27;;;;;;;19.83;10.93;;;2.80;99.90;;;;;;4987194;28;20728;-69
2021/01/28 01:44:54;;;;;;;19.13;10.83;;;2.70;99.90;;;;;;4982523;28;20046;-69
2021/01/28 01:47:35;;;;;;;20.40;11.37;;;2.60;99.90;;;;;;4978892;28;20746;-69
2021/01/28 01:50:04;;;;;;;21.97;12.43;;;2.60;99.90;;;;;;4980826;28;20054;-69
2021/01/28 01:52:32;;;;;;;21.20;11.63;;;2.70;99.90;;;;;;4975586;28;20047;-69
2021/01/28 01:54:59;;;;;;;21.50;11.37;;;2.70;99.90;;;;;;4975470;28;20131;-69
2021/01/28 01:57:34;;;;;;;22.23;12.70;;;2.60;99.90;;;;;;4978236;28;20424;-69
2021/01/28 02:00:07;;;;;;;21.27;12.83;;;2.50;99.90;;;;;;4976250;28;20050;-70
2021/01/28 02:02:37;;;;;;;23.13;13.03;;;2.50;99.90;;;;;;4973430;28;20046;-68
2021/01/28 02:05:13;;;;;;;24.00;12.33;;;2.60;99.90;;;;;;4982734;28;20057;-69
2021/01/28 02:07:40;;;;;;;19.23;11.80;;;2.50;99.90;;;;;;4978142;28;20508;-68
2021/01/28 02:10:09;;;;;;;24.93;13.13;;;2.50;99.90;;;;;;4977814;28;20065;-69
2021/01/28 02:12:36;;;;;;;21.73;12.53;;;2.60;99.90;;;;;;4976417;28;20101;-69
2021/01/28 02:15:04;;;;;;;22.40;13.03;;;2.50;99.90;;;;;;4978470;28;20514;-69
2021/01/28 02:17:32;;;;;;;22.13;12.70;;;2.70;99.90;;;;;;4974980;28;20062;-69
2021/01/28 02:20:10;;;;;;;22.57;12.93;;;2.70;99.90;;;;;;4976542;28;20058;-69
2021/01/28 02:22:48;;;;;;;22.97;13.27;;;2.70;99.90;;;;;;4974536;28;20050;-69
2021/01/28 02:25:25;;;;;;;24.93;15.03;;;2.70;99.90;;;;;;4978083;28;20051;-68
2021/01/28 02:27:55;;;;;;;22.17;12.90;;;2.60;99.90;;;;;;4978433;28;20420;-68
2021/01/28 02:30:25;;;;;;;22.70;13.70;;;2.60;99.90;;;;;;4976109;28;20197;-69
2021/01/28 02:32:53;;;;;;;22.87;13.93;;;2.60;99.90;;;;;;4984329;28;20650;-69
2021/01/28 02:35:21;;;;;;;29.03;14.30;;;2.70;99.90;;;;;;4986203;28;20054;-69
2021/01/28 02:37:47;;;;;;;24.97;13.80;;;2.60;99.90;;;;;;4986627;28;20941;-68
2021/01/28 02:40:15;;;;;;;23.27;13.63;;;2.60;99.90;;;;;;4985984;28;20419;-68
2021/01/28 02:42:43;;;;;;;21.00;12.07;;;2.60;99.90;;;;;;4984704;28;20428;-69
2021/01/28 02:45:13;;;;;;;26.50;12.97;;;2.60;99.90;;;;;;4985838;28;20053;-68
2021/01/28 02:47:40;;;;;;;23.03;13.43;;;2.60;99.90;;;;;;4974806;28;20120;-69
2021/01/28 02:50:07;;;;;;;24.70;13.43;;;2.60;99.90;;;;;;4982914;28;20057;-68
2021/01/28 02:52:35;;;;;;;24.90;14.27;;;2.70;99.90;;;;;;4984753;28;20180;-68
2021/01/28 02:55:02;;;;;;;24.93;13.20;;;2.80;99.90;;;;;;4984319;28;20593;-69
2021/01/28 02:57:28;;;;;;;24.03;13.20;;;2.80;99.90;;;;;;4974505;28;20409;-68
2021/01/28 02:59:56;;;;;;;22.47;13.20;;;2.80;99.90;;;;;;4978062;28;20074;-69
2021/01/28 03:02:22;;;;;;;24.20;13.00;;;2.90;99.90;;;;;;4980211;28;20046;-70
2021/01/28 03:04:48;;;;;;;23.07;12.80;;;2.80;99.90;;;;;;4977796;28;20054;-69
2021/01/28 03:07:16;;;;;;;23.10;12.93;;;2.90;99.90;;;;;;4979929;28;20504;-70
2021/01/28 03:09:43;;;;;;;24.27;13.60;;;2.80;99.90;;;;;;4985580;28;20488;-68
2021/01/28 03:12:10;;;;;;;24.80;12.90;;;2.70;99.90;;;;;;4984494;28;20050;-69
2021/01/28 03:14:36;;;;;;;25.30;13.37;;;2.80;99.90;;;;;;4980456;28;20191;-68
2021/01/28 03:17:04;;;;;;;27.20;14.37;;;2.80;99.90;;;;;;4971357;28;20461;-69
2021/01/28 03:19:31;;;;;;;26.23;13.43;;;2.80;99.90;;;;;;4974222;28;20042;-69
2021/01/28 03:21:58;;;;;;;26.23;14.67;;;2.90;99.90;;;;;;4976583;28;20093;-70
2021/01/28 03:24:25;;;;;;;26.03;14.27;;;2.80;99.90;;;;;;4974323;28;20046;-69
2021/01/28 03:26:51;;;;;;;27.30;14.00;;;2.70;99.90;;;;;;4978832;28;20154;-69
2021/01/28 03:29:18;;;;;;;26.50;13.57;;;2.70;99.90;;;;;;4978293;28;20386;-69
2021/01/28 03:31:45;;;;;;;27.10;14.33;;;2.60;99.90;;;;;;4973753;28;20046;-69
2021/01/28 03:34:12;;;;;;;29.33;15.77;;;2.60;99.90;;;;;;4967939;28;20065;-69
2021/01/28 03:36:39;;;;;;;27.90;14.43;;;2.60;99.90;;;;;;4974329;28;20057;-68
2021/01/28 03:39:07;;;;;;;27.03;14.00;;;2.70;99.90;;;;;;4975559;28;20132;-69
2021/01/28 03:41:33;;;;;;;32.83;16.03;;;2.70;99.90;;;;;;4976546;28;20101;-69
2021/01/28 03:44:00;;;;;;;28.47;14.40;;;2.70;99.90;;;;;;4969587;28;20059;-69
2021/01/28 03:46:27;;;;;;;29.63;16.07;;;2.80;99.90;;;;;;4975605;28;20061;-69
2021/01/28 03:48:53;;;;;;;32.53;16.10;;;2.80;99.90;;;;;;4969800;28;20061;-68
2021/01/28 03:51:21;;;;;;;33.07;16.13;;;2.70;99.90;;;;;;4976580;28;20112;-68
2021/01/28 03:53:47;;;;;;;31.37;15.00;;;2.70;99.90;;;;;;4976444;28;20055;-69
2021/01/28 03:56:14;;;;;;;30.43;15.17;;;2.60;99.90;;;;;;4974622;28;20050;-69
2021/01/28 03:58:41;;;;;;;31.13;15.50;;;2.70;99.90;;;;;;4981925;28;20053;-69
2021/01/28 04:01:08;;;;;;;29.43;15.43;;;2.70;99.90;;;;;;4984051;28;20061;-69
2021/01/28 04:03:34;;;;;;;31.77;15.27;;;2.90;99.90;;;;;;4980287;28;20050;-69
2021/01/28 04:06:01;;;;;;;28.77;13.67;;;2.80;99.90;;;;;;4973998;28;20057;-68
2021/01/28 04:08:28;;;;;;;31.27;15.90;;;2.90;99.90;;;;;;4974272;28;20058;-68
2021/01/28 04:10:55;;;;;;;31.80;15.73;;;2.90;99.90;;;;;;4974074;28;20072;-70
2021/01/28 04:13:21;;;;;;;36.30;17.07;;;2.80;99.90;;;;;;4973942;28;20046;-68
2021/01/28 04:15:48;;;;;;;33.13;15.83;;;2.80;99.90;;;;;;4975713;28;20046;-69
2021/01/28 04:18:17;;;;;;;33.83;16.20;;;2.80;99.90;;;;;;4976016;28;20127;-69
2021/01/28 04:20:44;;;;;;;31.10;15.07;;;2.80;99.90;;;;;;4973289;28;20501;-69
2021/01/28 04:23:11;;;;;;;31.20;15.53;;;2.70;99.90;;;;;;4973792;28;20054;-68
2021/01/28 04:25:38;;;;;;;34.83;16.20;;;2.70;99.90;;;;;;4973927;28;20047;-68
2021/01/28 04:28:05;;;;;;;36.73;16.37;;;2.80;99.90;;;;;;4973320;28;20050;-68
2021/01/28 04:30:33;;;;;;;34.23;16.57;;;2.80;99.90;;;;;;5138156;22;20122;-73
2021/01/28 04:33:02;;;;;;;33.07;15.07;;;2.70;99.90;;;;;;4940207;29;20047;-73
2021/01/28 04:35:29;;;;;;;32.00;13.97;;;2.80;99.90;;;;;;4944853;29;20505;-73
2021/01/28 04:37:55;;;;;;;34.03;15.53;;;2.80;99.90;;;;;;4945034;29;20051;-73
2021/01/28 04:40:29;;;;;;;36.23;16.00;;;3.10;99.90;;;;;;4937787;29;20074;-73
2021/01/28 04:42:58;;;;;;;34.80;15.73;;;3.00;99.90;;;;;;4934745;29;20055;-73
2021/01/28 04:45:28;;;;;;;35.03;14.87;;;3.00;99.90;;;;;;4933360;29;20682;-73
2021/01/28 04:47:57;;;;;;;37.33;16.77;;;3.00;99.90;;;;;;4938561;29;20059;-73
2021/01/28 04:50:27;;;;;;;37.60;15.40;;;2.90;99.90;;;;;;4933318;29;20047;-73
2021/01/28 04:52:57;;;;;;;33.73;15.13;;;3.00;99.90;;;;;;4933989;29;20047;-73
2021/01/28 04:55:34;;;;;;;40.40;17.30;;;2.90;99.90;;;;;;4933123;29;20066;-73
2021/01/28 04:58:01;;;;;;;37.10;16.25;;;3.00;99.90;;;;;;4934131;29;20126;-73
2021/01/28 05:00:28;;;;;;;39.80;16.43;;;3.00;99.90;;;;;;4931300;29;20051;-73
2021/01/28 05:02:59;;;;;;;39.53;16.40;;;3.00;99.90;;;;;;4931264;29;20731;-73
2021/01/28 05:05:26;;;;;;;36.70;15.83;;;2.90;99.90;;;;;;4938434;29;20047;-73
2021/01/28 05:07:52;;;;;;;37.67;16.47;;;2.90;99.90;;;;;;4937263;29;20051;-73
2021/01/28 05:10:41;;;;;;;35.77;15.43;;;2.80;99.90;;;;;;4939490;29;20098;-73
2021/01/28 05:13:09;;;;;;;40.73;16.33;;;2.80;99.90;;;;;;4937992;29;20498;-73
2021/01/28 05:15:38;;;;;;;42.97;16.97;;;2.70;99.90;;;;;;4937738;29;20510;-73
2021/01/28 05:18:20;;;;;;;39.83;17.80;;;2.80;99.90;;;;;;4938144;29;20048;-73
2021/01/28 05:20:47;;;;;;;48.30;18.43;;;2.80;99.90;;;;;;4933565;29;20134;-73
2021/01/28 05:23:28;;;;;;;41.93;17.07;;;2.80;99.90;;;;;;4938893;29;20118;-73
2021/01/28 05:25:55;;;;;;;46.40;19.27;;;2.80;99.90;;;;;;4938813;29;20047;-73
2021/01/28 05:28:25;;;;;;;46.70;19.70;;;2.80;99.90;;;;;;4940301;29;20160;-73
2021/01/28 05:30:52;;;;;;;46.50;18.53;;;2.90;99.90;;;;;;4934499;29;20287;-73
2021/01/28 05:33:32;;;;;;;44.07;18.50;;;2.90;99.90;;;;;;4940730;29;20074;-73
2021/01/28 05:36:14;;;;;;;43.63;18.37;;;2.90;99.90;;;;;;4937254;29;20058;-73
2021/01/28 05:38:43;;;;;;;48.57;17.93;;;3.10;99.90;;;;;;4934727;29;20510;-73
2021/01/28 05:41:13;;;;;;;48.97;18.70;;;3.00;99.90;;;;;;4940136;29;20051;-73
2021/01/28 05:43:42;;;;;;;57.13;20.30;;;2.90;99.90;;;;;;4936288;29;20071;-73
2021/01/28 05:46:15;;;;;;;60.17;19.53;;;2.90;99.90;;;;;;4937788;29;20043;-73
2021/01/28 05:48:42;;;;;;;59.40;19.30;;;2.90;99.90;;;;;;4937670;29;20055;-73
2021/01/28 05:51:14;;;;;;;60.77;20.20;;;2.80;99.90;;;;;;4936905;29;20048;-73
2021/01/28 05:53:56;;;;;;;67.60;22.40;;;2.80;99.90;;;;;;4937358;29;20047;-73
2021/01/28 05:56:23;;;;;;;69.33;22.63;;;2.70;99.90;;;;;;4937760;29;20506;-73
2021/01/28 05:58:57;;;;;;;68.67;21.43;;;2.60;99.90;;;;;;4936782;29;20051;-73
2021/01/28 06:01:35;;;;;;;69.33;23.73;;;2.60;99.90;;;;;;4938155;29;20051;-73
2021/01/28 06:04:20;;;;;;;66.30;24.23;;;2.60;99.90;;;;;;4932113;29;20060;-73
2021/01/28 06:07:20;;;;;;;71.77;24.60;;;2.70;99.90;;;;;;4939497;29;20055;-73
2021/01/28 06:10:10;;;;;;;77.60;23.43;;;2.70;99.90;;;;;;4935311;29;20044;-73
2021/01/28 06:12:48;;;;;;;73.77;22.70;;;2.80;99.90;;;;;;4933597;29;20059;-73
2021/01/28 06:15:29;;;;;;;83.37;25.07;;;2.80;99.90;;;;;;4934860;29;20055;-73
2021/01/28 06:18:28;;;;;;;78.40;24.70;;;2.70;99.90;;;;;;4938798;29;20051;-73
2021/01/28 06:21:21;;;;;;;79.97;23.77;;;2.80;99.90;;;;;;4939560;29;20417;-73
2021/01/28 06:24:05;;;;;;;69.73;22.30;;;2.80;99.90;;;;;;4934423;29;20059;-73
2021/01/28 06:26:42;;;;;;;67.73;22.03;;;2.80;99.90;;;;;;4935713;29;20059;-73
2021/01/28 06:29:36;;;;;;;81.53;23.08;;;2.80;99.90;;;;;;4938712;29;20043;-73
2021/01/28 06:32:26;;;;;;;69.27;22.00;;;2.80;99.90;;;;;;4934868;29;20107;-73
2021/01/28 06:35:13;;;;;;;88.87;24.77;;;2.80;99.90;;;;;;4933051;29;20051;-73
2021/01/28 06:37:54;;;;;;;66.45;20.90;;;2.80;99.90;;;;;;4932517;29;20815;-73
2021/01/28 06:40:27;;;;;;;71.73;22.83;;;2.80;99.90;;;;;;4934472;29;20048;-73
2021/01/28 06:42:59;;;;;;;74.13;23.73;;;2.80;99.90;;;;;;4932584;29;20074;-73
2021/01/28 06:45:30;;;;;;;77.33;21.37;;;3.00;99.90;;;;;;4936666;29;20052;-73
2021/01/28 06:48:03;;;;;;;77.43;22.23;;;2.90;99.90;;;;;;4936138;29;20075;-73
2021/01/28 06:50:36;;;;;;;66.10;21.87;;;2.90;99.90;;;;;;4935738;29;20063;-73
2021/01/28 06:53:13;;;;;;;76.50;21.90;;;2.90;99.90;;;;;;4931817;29;20051;-73
2021/01/28 06:55:49;;;;;;;81.82;23.42;;;2.80;99.90;;;;;;4939721;29;20618;-73
2021/01/28 06:58:51;;;;;;;80.73;23.27;;;2.80;99.90;;;;;;4940617;28;20047;-73
2021/01/28 07:01:25;;;;;;;73.27;21.80;;;2.80;99.90;;;;;;4937623;29;20358;-73
2021/01/28 07:04:03;;;;;;;86.90;23.50;;;2.80;99.90;;;;;;4945958;29;20054;-73
2021/01/28 07:06:40;;;;;;;82.43;23.83;;;2.80;99.90;;;;;;4945908;29;20059;-73
2021/01/28 07:09:14;;;;;;;;;;;2.70;99.90;;;;;;4947699;29;20058;-73
2021/01/28 07:11:42;;;;;;;87.17;22.77;;;2.70;99.90;;;;;;4938538;29;20025;-73
2021/01/28 07:14:18;;;;;;;102.87;25.47;;;2.70;99.90;;;;;;4929249;29;20052;-73
2021/01/28 07:16:54;;;;;;;108.60;27.07;;;2.70;99.90;;;;;;4929272;29;20063;-73
2021/01/28 07:19:26;;;;;;;99.40;26.73;;;2.70;99.90;;;;;;4929934;29;20142;-73
2021/01/28 07:21:56;;;;;;;99.23;27.07;;;2.60;99.90;;;;;;4928950;29;20099;-73
2021/01/28 07:24:31;;;;;;;96.50;26.57;;;2.60;99.90;;;;;;4928647;29;20095;-73
2021/01/28 07:27:00;;;;;;;87.40;24.10;;;2.50;99.90;;;;;;4928940;29;20051;-73
2021/01/28 07:30:00;;;;;;;84.77;25.90;;;2.60;99.90;;;;;;4928573;29;20153;-73
2021/01/28 07:32:50;;;;;;;74.50;23.10;;;2.60;99.90;;;;;;4920721;29;20579;-73
2021/01/28 07:35:45;;;;;;;78.03;24.73;;;2.60;99.90;;;;;;4910347;29;20058;-73
2021/01/28 07:38:41;;;;;;;71.30;25.03;;;2.60;99.90;;;;;;4894856;29;20052;-73
2021/01/28 07:41:25;;;;;;;71.30;25.07;;;2.60;99.90;;;;;;4893657;29;20059;-73
2021/01/28 07:43:54;;;;;;;69.57;24.30;;;2.60;99.90;;;;;;4909871;29;20707;-73
2021/01/28 07:46:38;;;;;;;70.97;24.20;;;2.60;99.90;;;;;;4911028;29;20052;-73
2021/01/28 07:49:15;;;;;;;68.93;21.47;;;2.60;99.90;;;;;;4911396;29;20084;-73
2021/01/28 07:51:44;;;;;;;67.53;23.53;;;2.70;99.90;;;;;;4910113;29;20052;-73
2021/01/28 07:54:45;;;;;;;69.43;23.27;;;2.70;99.90;;;;;;4909447;29;20052;-73
2021/01/28 07:57:13;;;;;;;67.17;22.40;;;2.80;99.90;;;;;;4909586;29;20522;-73
2021/01/28 07:59:48;;;;;;;58.93;21.37;;;2.90;99.90;;;;;;4908558;29;20043;-77
2021/01/28 08:02:27;;;;;;;57.17;20.73;;;2.90;99.90;;;;;;4915185;29;20075;-77
2021/01/28 08:04:59;;;;;;;68.03;22.93;;;2.90;99.90;;;;;;4913853;29;20058;-76
2021/01/28 08:07:29;;;;;;;56.77;21.20;;;2.90;99.90;;;;;;4919173;29;20119;-75
2021/01/28 08:09:57;;;;;;;55.03;20.20;;;2.90;99.90;;;;;;4912583;29;20052;-75
2021/01/28 08:12:28;;;;;;;54.60;21.77;;;3.00;99.90;;;;;;4919237;29;20051;-74
2021/01/28 08:14:56;;;;;;;48.27;20.67;;;3.00;99.90;;;;;;4914259;29;20603;-74
2021/01/28 08:17:31;;;;;;;51.77;18.83;;;3.00;99.90;;;;;;4917057;29;20146;-75
2021/01/28 08:20:22;;;;;;;56.13;21.07;;;3.00;99.90;;;;;;4909650;29;20091;-75
2021/01/28 08:22:55;;;;;;;57.30;21.87;;;3.00;99.90;;;;;;4909248;29;20055;-74
2021/01/28 08:25:22;;;;;;;51.17;20.33;;;3.00;99.90;;;;;;4915954;29;20067;-76
2021/01/28 08:27:48;;;;;;;48.70;20.17;;;3.00;99.90;;;;;;4925404;29;20478;-75
2021/01/28 08:30:18;;;;;;;49.27;18.50;;;3.00;99.90;;;;;;4915615;29;20054;-73
2021/01/28 08:32:46;;;;;;;50.77;21.20;;;3.00;99.90;;;;;;4932691;29;20048;-76
2021/01/28 08:35:22;;;;;;;48.67;19.60;;;3.00;99.90;;;;;;4927910;29;20060;-75
2021/01/28 08:37:48;;;;;;;45.53;18.47;;;2.90;99.90;;;;;;4932365;28;20040;-76
2021/01/28 08:40:20;;;;;;;50.07;20.47;;;2.90;99.90;;;;;;4936008;29;20063;-73
2021/01/28 08:42:46;;;;;;;53.53;20.67;;;2.90;99.90;;;;;;4936853;29;20094;-75
2021/01/28 08:45:20;;;;;;;50.77;18.80;;;2.90;99.90;;;;;;4940639;29;20051;-75
2021/01/28 08:47:57;;;;;;;45.27;18.40;;;2.90;99.90;;;;;;4947435;29;20537;-73
2021/01/28 08:50:27;;;;;;;52.37;20.20;;;2.80;99.90;;;;;;4931463;29;20135;-73
2021/01/28 08:53:01;;;;;;;52.37;20.20;;;2.80;99.90;;;;;;4937728;29;20066;-73
2021/01/28 08:55:34;;;;;;;48.40;19.20;;;2.90;99.90;;;;;;4935250;29;20119;-74
2021/01/28 08:58:07;;;;;;;53.77;20.90;;;2.90;99.90;;;;;;4931899;29;20087;-77
2021/01/28 09:00:39;;;;;;;49.27;19.67;;;2.90;99.90;;;;;;4931791;29;20056;-77
2021/01/28 09:03:06;;;;;;;46.17;18.43;;;3.00;99.90;;;;;;4940611;29;20051;-79
2021/01/28 09:05:33;;;;;;;53.17;20.37;;;3.00;99.90;;;;;;4940335;29;20118;-75
2021/01/28 09:08:02;;;;;;;48.73;18.43;;;3.00;99.90;;;;;;4929453;29;20044;-76
2021/01/28 09:10:34;;;;;;;52.53;20.33;;;3.00;99.90;;;;;;4932717;29;20048;-76
2021/01/28 09:13:20;;;;;;;55.77;20.83;;;3.00;99.90;;;;;;4927468;29;20103;-75
2021/01/28 09:15:47;;;;;;;53.47;19.67;;;3.00;99.90;;;;;;4943870;29;20058;-74
2021/01/28 09:18:27;;;;;;;54.97;20.40;;;3.00;99.90;;;;;;4948040;29;20047;-73
2021/01/28 09:21:04;;;;;;;49.97;19.73;;;2.90;99.90;;;;;;4931066;29;20051;-73
2021/01/28 09:23:30;;;;;;;47.47;20.30;;;2.90;99.90;;;;;;4940670;29;20048;-73
2021/01/28 09:26:12;;;;;;;49.03;19.07;;;2.90;99.90;;;;;;4929010;29;20048;-73
2021/01/28 09:28:39;;;;;;;47.83;20.03;;;2.90;99.90;;;;;;4941330;29;20572;-74
2021/01/28 09:31:22;;;;;;;47.27;19.00;;;2.90;99.90;;;;;;4947525;29;20054;-74
2021/01/28 09:33:49;;;;;;;50.63;19.93;;;2.90;99.90;;;;;;4946473;29;20047;-74
2021/01/28 09:36:20;;;;;;;51.67;19.70;;;2.90;99.90;;;;;;4947385;29;20051;-74
2021/01/28 09:39:03;;;;;;;54.07;19.83;;;2.80;99.90;;;;;;4947959;29;20527;-74
2021/01/28 09:41:39;;;;;;;52.60;20.73;;;2.90;99.90;;;;;;4947599;29;20058;-74
2021/01/28 09:44:30;;;;;;;47.93;20.43;;;2.80;99.90;;;;;;4947299;29;20078;-75
2021/01/28 09:47:17;;;;;;;52.20;20.00;;;2.80;99.90;;;;;;4936437;29;20063;-75
2021/01/28 09:49:46;;;;;;;55.45;20.15;;;2.90;99.90;;;;;;4928804;29;20145;-74
2021/01/28 09:52:19;;;;;;;54.33;20.13;;;2.90;99.90;;;;;;4928254;29;20055;-74
2021/01/28 09:54:48;;;;;;;51.23;20.47;;;2.90;99.90;;;;;;4927958;29;20751;-75
2021/01/28 09:57:16;;;;;;;49.73;20.80;;;2.90;99.90;;;;;;4927906;29;20102;-75
2021/01/28 09:59:42;;;;;;;52.93;20.33;;;2.80;99.90;;;;;;4927765;29;20155;-75
2021/01/28 10:02:11;;;;;;;50.00;18.63;;;2.90;99.90;;;;;;4930405;29;20059;-75
2021/01/28 10:04:38;;;;;;;54.67;20.97;;;2.90;99.90;;;;;;4936476;29;20134;-75
2021/01/28 10:07:04;;;;;;;48.93;19.87;;;2.90;99.90;;;;;;4942441;29;20094;-75
2021/01/28 10:09:31;;;;;;;53.83;22.27;;;3.00;99.90;;;;;;4936009;29;20055;-74
2021/01/28 10:11:57;;;;;;;52.70;20.37;;;3.00;99.90;;;;;;4938184;29;20047;-75
2021/01/28 10:14:25;;;;;;;55.77;22.47;;;3.00;99.90;;;;;;4927844;29;20110;-75
2021/01/28 10:16:51;;;;;;;52.73;20.53;;;3.00;99.90;;;;;;4928465;29;20043;-75
2021/01/28 10:19:18;;;;;;;52.20;21.43;;;3.00;99.90;;;;;;4928416;29;20055;-74
2021/01/28 10:21:44;;;;;;;63.53;20.37;;;3.00;99.90;;;;;;4934804;29;20524;-75
2021/01/28 10:24:11;;;;;;;59.77;21.33;;;3.00;99.90;;;;;;4930270;29;20674;-75
2021/01/28 10:26:37;;;;;;;56.10;21.27;;;3.00;99.90;;;;;;4933915;29;20055;-75
2021/01/28 10:29:06;;;;;;;50.97;20.27;;;3.10;99.90;;;;;;4934325;29;20696;-75
2021/01/28 10:31:34;;;;;;;48.47;20.40;;;3.10;99.90;;;;;;5230488;23;20060;-72
2021/01/28 10:34:01;;;;;;;55.03;20.30;;;3.20;99.90;;;;;;4997825;28;20047;-71
2021/01/28 10:36:27;;;;;;;52.30;21.00;;;3.10;99.90;;;;;;4996444;28;20082;-71
2021/01/28 10:38:55;;;;;;;52.80;20.70;;;3.20;99.90;;;;;;4994213;28;20455;-71
2021/01/28 10:41:22;;;;;;;55.37;21.50;;;3.10;99.90;;;;;;4984824;28;20739;-72
2021/01/28 10:43:48;;;;;;;55.47;21.37;;;3.10;99.90;;;;;;5000147;28;20050;-70
2021/01/28 10:46:15;;;;;;;57.00;22.30;;;3.10;99.90;;;;;;4992489;28;20049;-72
2021/01/28 10:48:42;;;;;;;60.30;21.10;;;3.20;99.90;;;;;;5002488;28;20042;-72
2021/01/28 10:51:10;;;;;;;64.40;22.17;;;3.10;99.90;;;;;;4988294;28;20050;-73
2021/01/28 10:53:37;;;;;;;56.20;21.80;;;3.10;99.90;;;;;;5003628;28;20062;-72
2021/01/28 10:56:04;;;;;;;56.43;22.30;;;3.10;99.90;;;;;;5004642;28;20061;-73
2021/01/28 10:58:31;;;;;;;56.07;19.70;;;3.10;99.90;;;;;;5004194;28;20057;-72
2021/01/28 11:00:58;;;;;;;50.83;20.13;;;3.10;99.90;;;;;;5003463;28;20045;-72
2021/01/28 11:03:28;;;;;;;56.40;19.50;;;3.00;99.90;;;;;;5004757;28;20053;-71
2021/01/28 11:05:56;;;;;;;56.30;20.03;;;3.00;99.90;;;;;;5001578;28;20049;-73
2021/01/28 11:08:23;;;;;;;57.23;21.27;;;3.00;99.90;;;;;;4997451;28;20042;-73
2021/01/28 11:10:49;;;;;;;57.73;19.67;;;3.10;99.90;;;;;;4992316;28;20077;-72
2021/01/28 11:13:16;;;;;;;51.17;18.67;;;3.10;99.90;;;;;;4999404;28;20115;-73
2021/01/28 11:15:42;;;;;;;48.57;18.90;;;3.00;99.90;;;;;;5005718;28;20104;-70
2021/01/28 11:18:11;;;;;;;50.10;20.67;;;3.00;99.90;;;;;;4999772;28;20092;-69
2021/01/28 11:20:37;;;;;;;55.10;20.03;;;3.00;99.90;;;;;;4996754;28;20152;-71
2021/01/28 11:23:05;;;;;;;53.60;20.63;;;3.10;99.90;;;;;;4996626;28;20053;-76
2021/01/28 11:25:35;;;;;;;49.20;18.93;;;3.10;99.90;;;;;;4992496;28;20045;-72
2021/01/28 11:28:02;;;;;;;46.37;19.57;;;3.10;99.90;;;;;;4998425;28;20050;-72
2021/01/28 11:30:30;;;;;;;46.33;17.90;;;3.00;99.90;;;;;;4995381;28;20215;-72
2021/01/28 11:32:57;;;;;;;50.90;18.93;;;3.10;99.90;;;;;;5000667;28;20042;-72
2021/01/28 11:35:26;;;;;;;56.77;19.00;;;3.10;99.90;;;;;;5004681;28;20042;-71
2021/01/28 11:37:52;;;;;;;55.07;20.70;;;3.00;99.90;;;;;;4995741;28;20735;-74
2021/01/28 11:40:22;;;;;;;46.87;17.93;;;3.10;99.90;;;;;;5004523;28;20058;-71
2021/01/28 11:42:50;;;;;;;43.87;17.53;;;3.10;99.90;;;;;;5003547;28;20104;-74
2021/01/28 11:45:18;;;;;;;50.23;18.20;;;3.10;99.90;;;;;;5005093;28;20057;-71
2021/01/28 11:47:45;;;;;;;46.87;18.93;;;3.10;99.90;;;;;;5005359;28;20061;-73
2021/01/28 11:50:12;;;;;;;46.70;16.93;;;3.20;99.90;;;;;;5003257;28;20058;-71
2021/01/28 11:52:39;;;;;;;49.43;18.43;;;3.10;99.90;;;;;;5004217;28;20131;-72
2021/01/28 11:55:09;;;;;;;52.90;18.73;;;3.10;99.90;;;;;;5004767;28;20500;-74
2021/01/28 11:57:36;;;;;;;49.47;18.67;;;3.10;99.90;;;;;;4992012;28;20053;-72
2021/01/28 12:00:03;;;;;;;43.60;16.50;;;3.10;99.90;;;;;;5000958;28;20407;-71
2021/01/28 12:02:30;;;;;;;53.57;19.43;;;3.10;99.90;;;;;;5003975;28;20123;-73
2021/01/28 12:04:57;;;;;;;42.23;14.70;;;3.10;99.90;;;;;;4997312;28;20073;-72
2021/01/28 12:07:24;;;;;;;40.17;15.53;;;3.10;99.90;;;;;;5004750;28;20056;-72
2021/01/28 12:09:50;;;;;;;37.60;15.43;;;3.20;99.90;;;;;;5004542;28;20513;-73
2021/01/28 12:12:17;;;;;;;40.03;15.63;;;3.10;99.90;;;;;;5003255;28;20408;-74
2021/01/28 12:14:44;;;;;;;39.20;14.63;;;3.20;99.90;;;;;;5004060;28;20061;-75
2021/01/28 12:17:11;;;;;;;40.20;16.17;;;3.20;99.90;;;;;;4994352;28;20057;-74
2021/01/28 12:19:38;;;;;;;49.27;15.77;;;3.20;99.90;;;;;;5003907;28;20430;-70
2021/01/28 12:22:15;;;;;;;42.47;15.40;;;3.20;99.90;;;;;;4994695;28;20050;-71
2021/01/28 12:24:58;;;;;;;37.37;15.57;;;3.20;99.90;;;;;;4996961;28;20092;-70
2021/01/28 12:27:26;;;;;;;40.27;16.40;;;3.30;99.90;;;;;;5004416;28;20058;-69
2021/01/28 12:29:54;;;;;;;33.87;14.13;;;3.30;99.90;;;;;;5005473;28;20141;-70
2021/01/28 12:32:20;;;;;;;38.23;15.47;;;3.30;99.90;;;;;;5000548;28;20835;-70
2021/01/28 12:34:47;;;;;;;38.13;15.47;;;3.20;99.90;;;;;;4999057;28;20046;-71
2021/01/28 12:37:14;;;;;;;38.47;14.40;;;3.30;99.90;;;;;;4992897;28;20047;-71
2021/01/28 12:39:41;;;;;;;37.87;13.90;;;3.30;99.90;;;;;;4995041;28;20080;-70
2021/01/28 12:42:08;;;;;;;37.67;15.80;;;3.40;99.90;;;;;;4994263;28;20065;-71
2021/01/28 12:44:35;;;;;;;44.37;15.87;;;3.40;99.90;;;;;;4992429;28;20050;-71
2021/01/28 12:47:02;;;;;;;40.30;16.33;;;3.40;99.90;;;;;;4987553;28;20042;-70
2021/01/28 12:49:30;;;;;;;39.37;14.17;;;3.50;99.90;;;;;;4987784;28;20100;-70
2021/01/28 12:51:56;;;;;;;32.90;13.40;;;3.50;99.90;;;;;;4995750;28;20066;-71
2021/01/28 12:54:23;;;;;;;32.47;13.47;;;3.50;99.90;;;;;;4988975;28;20064;-71
2021/01/28 12:56:50;;;;;;;33.33;13.47;;;3.50;99.90;;;;;;4993515;28;20046;-70